Time;durP1;ratioP1;P1;durP2;ratioP2;P2;SDS_P1;SDS_P2;PMS_P1;PMS_P2;Temp;Humidity;BMP_temperature;BMP_pressure;BME280_temperature;BME280_humidity;BME280_pressure;Samples;Min_cycle;Max_cycle;Signal;HPM_P1;HPM_P2
2023/03/01 00:02:02;;;;;;;4.55;2.00;;;;;;;;;;5024164;28;20147;-67
2023/03/01 00:05:42;;;;;;;3.38;1.83;;;;;;;;;;5023031;28;20076;-69
2023/03/01 00:09:23;;;;;;;5.78;2.38;;;;;;;;;;5030290;28;20061;-67
2023/03/01 00:13:05;;;;;;;3.28;2.03;;;;;;;;;;5028737;28;20053;-67
2023/03/01 00:16:47;;;;;;;5.00;2.10;;;;;;;;;;5028104;28;20041;-69
2023/03/01 00:20:28;;;;;;;3.50;2.05;;;;;;;;;;5031743;28;20060;-69
2023/03/01 00:24:10;;;;;;;4.10;1.90;;;;;;;;;;5030232;28;20556;-67
2023/03/01 00:27:50;;;;;;;2.95;2.00;;;;;;;;;;5027810;28;20503;-67
2023/03/01 00:30:50;;;;;;;4.25;2.00;;;;;;;;;;5027975;28;20140;-67
2023/03/01 00:33:18;;;;;;;5.40;2.08;;;;;;;;;;5027226;28;20045;-67
2023/03/01 00:35:44;;;;;;;4.78;2.00;;;;;;;;;;5025206;28;21391;-67
2023/03/01 00:38:11;;;;;;;4.82;2.40;;;;;;;;;;5031702;28;20052;-68
2023/03/01 00:40:37;;;;;;;3.47;2.22;;;;;;;;;;5028611;28;20051;-68
2023/03/01 00:43:04;;;;;;;3.70;2.35;;;;;;;;;;5033139;28;20061;-66
2023/03/01 00:45:31;;;;;;;4.72;2.42;;;;;;;;;;5036496;28;20508;-68
2023/03/01 00:47:57;;;;;;;2.95;1.92;;;;;;;;;;5033684;28;20496;-69
2023/03/01 00:50:24;;;;;;;2.85;1.90;;;;;;;;;;5035346;28;20432;-67
2023/03/01 00:52:55;;;;;;;4.55;2.08;;;;;;;;;;5034184;28;20067;-69
2023/03/01 00:56:00;;;;;;;3.47;2.00;;;;;;;;;;5029364;28;20052;-67
2023/03/01 00:59:41;;;;;;;2.67;1.80;;;;;;;;;;5035777;28;20072;-66
2023/03/01 01:03:21;;;;;;;3.28;1.85;;;;;;;;;;5036731;28;20441;-70
2023/03/01 01:07:02;;;;;;;4.63;1.77;;;;;;;;;;5033289;28;20053;-67
2023/03/01 01:10:03;;;;;;;3.22;1.52;;;;;;;;;;5037417;28;20056;-70
2023/03/01 01:13:09;;;;;;;3.78;1.88;;;;;;;;;;5035514;28;20111;-68
2023/03/01 01:16:50;;;;;;;2.60;1.80;;;;;;;;;;5031589;28;20717;-67
2023/03/01 01:20:30;;;;;;;3.20;1.90;;;;;;;;;;5031858;28;20056;-67
2023/03/01 01:24:11;;;;;;;8.45;1.75;;;;;;;;;;5033196;28;20530;-68
2023/03/01 01:27:51;;;;;;;2.72;1.70;;;;;;;;;;5029643;28;20045;-68
2023/03/01 01:31:32;;;;;;;3.45;1.80;;;;;;;;;;5027054;28;20497;-67
2023/03/01 01:35:12;;;;;;;5.20;1.60;;;;;;;;;;5031338;28;20041;-68
2023/03/01 01:38:53;;;;;;;6.28;1.60;;;;;;;;;;5030850;28;20075;-67
2023/03/01 01:41:53;;;;;;;2.95;1.77;;;;;;;;;;5035000;28;20088;-69
2023/03/01 01:45:05;;;;;;;3.28;1.83;;;;;;;;;;5032398;28;20198;-67
2023/03/01 01:48:46;;;;;;;3.63;1.83;;;;;;;;;;5033309;28;20225;-67
2023/03/01 01:52:32;;;;;;;4.03;1.67;;;;;;;;;;5027300;28;20044;-68
2023/03/01 01:56:13;;;;;;;5.85;1.63;;;;;;;;;;5033853;28;20053;-67
2023/03/01 01:59:53;;;;;;;2.65;1.70;;;;;;;;;;5034010;28;20552;-67
2023/03/01 02:03:37;;;;;;;3.10;2.00;;;;;;;;;;5029967;28;21201;-67
2023/03/01 02:07:14;;;;;;;4.30;2.03;;;;;;;;;;5037751;28;20554;-67
2023/03/01 02:10:55;;;;;;;2.75;1.75;;;;;;;;;;5041811;28;20464;-67
2023/03/01 02:14:35;;;;;;;2.38;1.70;;;;;;;;;;5040833;28;20497;-67
2023/03/01 02:18:15;;;;;;;5.78;2.00;;;;;;;;;;5039140;28;20048;-66
2023/03/01 02:21:25;;;;;;;3.75;1.92;;;;;;;;;;5038159;28;20049;-66
2023/03/01 02:24:51;;;;;;;2.55;1.50;;;;;;;;;;5041275;28;20445;-67
2023/03/01 02:28:24;;;;;;;2.63;1.65;;;;;;;;;;5038513;28;20049;-66
2023/03/01 02:32:04;;;;;;;2.45;1.70;;;;;;;;;;5037803;28;20041;-67
2023/03/01 02:35:45;;;;;;;4.90;1.98;;;;;;;;;;5035036;28;20168;-67
2023/03/01 02:39:25;;;;;;;3.38;2.10;;;;;;;;;;5040384;28;20060;-66
2023/03/01 02:43:12;;;;;;;4.30;1.60;;;;;;;;;;5038080;28;20056;-65
2023/03/01 02:47:02;;;;;;;6.93;2.30;;;;;;;;;;5041409;28;20521;-67
2023/03/01 02:50:22;;;;;;;2.90;1.70;;;;;;;;;;5037609;28;20465;-66
2023/03/01 02:54:28;;;;;;;3.40;1.60;;;;;;;;;;5046708;28;20125;-70
2023/03/01 02:58:08;;;;;;;3.45;1.92;;;;;;;;;;5039138;28;20136;-67
2023/03/01 03:01:48;;;;;;;2.00;1.50;;;;;;;;;;5041419;28;20056;-66
2023/03/01 03:05:29;;;;;;;5.05;1.77;;;;;;;;;;5042185;28;20055;-66
2023/03/01 03:09:09;;;;;;;2.28;1.55;;;;;;;;;;5044561;28;20060;-67
2023/03/01 03:12:51;;;;;;;4.15;1.67;;;;;;;;;;5043026;28;20049;-67
2023/03/01 03:16:31;;;;;;;3.67;1.50;;;;;;;;;;5039667;28;20239;-67
2023/03/01 03:20:12;;;;;;;3.95;1.63;;;;;;;;;;5036169;28;20116;-66
2023/03/01 03:24:08;;;;;;;2.45;1.58;;;;;;;;;;5040300;28;20129;-66
2023/03/01 03:27:48;;;;;;;2.83;1.50;;;;;;;;;;5033915;28;20068;-67
2023/03/01 03:31:29;;;;;;;3.22;1.45;;;;;;;;;;5032885;28;20045;-67
2023/03/01 03:35:10;;;;;;;3.30;1.45;;;;;;;;;;5022141;28;20440;-67
2023/03/01 03:38:51;;;;;;;3.28;1.48;;;;;;;;;;5031120;28;20111;-67
2023/03/01 03:42:31;;;;;;;2.35;1.50;;;;;;;;;;5028188;28;20512;-65
2023/03/01 03:46:11;;;;;;;3.65;1.58;;;;;;;;;;5030029;28;20049;-68
2023/03/01 03:49:52;;;;;;;4.28;1.50;;;;;;;;;;5029703;28;20056;-68
2023/03/01 03:53:32;;;;;;;2.72;1.60;;;;;;;;;;5032319;28;20107;-67
2023/03/01 03:57:13;;;;;;;3.70;1.52;;;;;;;;;;5029605;28;20110;-67
2023/03/01 04:00:57;;;;;;;3.80;1.60;;;;;;;;;;5030898;28;20060;-67
2023/03/01 04:04:35;;;;;;;3.42;1.45;;;;;;;;;;5033907;28;20055;-68
2023/03/01 04:08:19;;;;;;;2.75;1.50;;;;;;;;;;5032392;28;20045;-67
2023/03/01 04:11:57;;;;;;;2.30;1.40;;;;;;;;;;5027158;28;20140;-68
2023/03/01 04:15:38;;;;;;;2.88;1.50;;;;;;;;;;5037942;28;20085;-65
2023/03/01 04:19:19;;;;;;;2.47;1.50;;;;;;;;;;5032014;28;20153;-67
2023/03/01 04:23:10;;;;;;;3.90;1.45;;;;;;;;;;5038806;28;20396;-69
2023/03/01 04:26:40;;;;;;;3.60;1.45;;;;;;;;;;5034937;28;20053;-67
2023/03/01 04:30:25;;;;;;;5.20;1.45;;;;;;;;;;5040200;28;20064;-68
2023/03/01 04:34:03;;;;;;;3.85;1.50;;;;;;;;;;5033588;28;20072;-67
2023/03/01 04:37:44;;;;;;;2.30;1.40;;;;;;;;;;5034259;28;20120;-67
2023/03/01 04:41:26;;;;;;;3.13;1.50;;;;;;;;;;5032864;28;20091;-66
2023/03/01 04:45:12;;;;;;;6.15;1.65;;;;;;;;;;5033439;28;20057;-67
2023/03/01 04:48:48;;;;;;;2.83;1.40;;;;;;;;;;5032046;28;20090;-67
2023/03/01 04:52:28;;;;;;;3.15;1.50;;;;;;;;;;5035093;28;20041;-66
2023/03/01 04:56:08;;;;;;;5.38;2.10;;;;;;;;;;5028658;28;20065;-66
2023/03/01 04:59:49;;;;;;;2.53;1.58;;;;;;;;;;5034413;28;20559;-68
2023/03/01 05:03:31;;;;;;;7.10;1.50;;;;;;;;;;5034890;28;20045;-70
2023/03/01 05:07:12;;;;;;;4.88;1.60;;;;;;;;;;5035312;28;20059;-66
2023/03/01 05:10:51;;;;;;;3.15;1.45;;;;;;;;;;5029990;28;20050;-68
2023/03/01 05:14:33;;;;;;;2.88;1.60;;;;;;;;;;5033023;28;20107;-66
2023/03/01 05:18:13;;;;;;;3.00;1.35;;;;;;;;;;5029360;28;20055;-67
2023/03/01 05:22:06;;;;;;;3.97;1.83;;;;;;;;;;5034741;28;20053;-67
2023/03/01 05:25:46;;;;;;;2.58;1.27;;;;;;;;;;5030739;28;20084;-68
2023/03/01 05:29:27;;;;;;;3.42;1.30;;;;;;;;;;5030587;28;20360;-67
2023/03/01 05:33:12;;;;;;;7.90;1.73;;;;;;;;;;5033327;28;20743;-68
2023/03/01 05:36:47;;;;;;;6.32;1.70;;;;;;;;;;5029517;28;20115;-69
2023/03/01 05:40:29;;;;;;;3.85;1.50;;;;;;;;;;5031587;28;20582;-69
2023/03/01 05:44:12;;;;;;;6.82;1.80;;;;;;;;;;5031921;28;20070;-68
2023/03/01 05:47:50;;;;;;;4.25;1.60;;;;;;;;;;5030850;28;21117;-67
2023/03/01 05:51:30;;;;;;;2.92;1.60;;;;;;;;;;5033650;28;20042;-65
2023/03/01 05:55:10;;;;;;;4.20;1.30;;;;;;;;;;5031045;28;20065;-65
2023/03/01 05:58:51;;;;;;;4.13;1.52;;;;;;;;;;5027453;28;20067;-68
2023/03/01 06:02:31;;;;;;;5.63;1.70;;;;;;;;;;5031186;28;20171;-66
2023/03/01 06:06:11;;;;;;;4.82;1.98;;;;;;;;;;5031433;28;20491;-66
2023/03/01 06:09:12;;;;;;;6.65;1.50;;;;;;;;;;5031442;28;20053;-67
2023/03/01 06:11:38;;;;;;;4.30;1.60;;;;;;;;;;5031876;28;20122;-65
2023/03/01 06:14:07;;;;;;;5.97;1.75;;;;;;;;;;5029265;28;20774;-67
2023/03/01 06:16:36;;;;;;;5.65;1.75;;;;;;;;;;5026000;28;20048;-66
2023/03/01 06:19:02;;;;;;;3.35;1.77;;;;;;;;;;5024868;28;20150;-66
2023/03/01 06:21:29;;;;;;;3.50;1.88;;;;;;;;;;5028318;28;20056;-67
2023/03/01 06:23:56;;;;;;;4.90;2.60;;;;;;;;;;5030277;28;20406;-65
2023/03/01 06:26:24;;;;;;;5.25;1.85;;;;;;;;;;5029018;28;20459;-64
2023/03/01 06:28:51;;;;;;;2.50;1.48;;;;;;;;;;5028004;28;20115;-69
2023/03/01 06:31:18;;;;;;;3.53;1.50;;;;;;;;;;5030647;28;20057;-67
2023/03/01 06:33:44;;;;;;;5.07;1.58;;;;;;;;;;5034342;28;20175;-67
2023/03/01 06:36:10;;;;;;;3.83;1.80;;;;;;;;;;5029286;28;20123;-66
2023/03/01 06:38:37;;;;;;;2.33;1.60;;;;;;;;;;5031783;28;20052;-68
2023/03/01 06:41:03;;;;;;;8.18;2.10;;;;;;;;;;5030849;28;20358;-66
2023/03/01 06:43:29;;;;;;;3.85;1.55;;;;;;;;;;5031330;28;20060;-69
2023/03/01 06:45:58;;;;;;;5.53;1.77;;;;;;;;;;5037222;28;20053;-66
2023/03/01 06:48:24;;;;;;;3.75;1.70;;;;;;;;;;5025761;28;20045;-66
2023/03/01 06:50:50;;;;;;;2.85;1.70;;;;;;;;;;5031909;28;20064;-65
2023/03/01 06:53:16;;;;;;;6.15;1.83;;;;;;;;;;5031226;28;20465;-69
2023/03/01 06:55:43;;;;;;;5.10;1.90;;;;;;;;;;5025764;28;20531;-74
2023/03/01 06:58:11;;;;;;;3.53;1.88;;;;;;;;;;5023411;28;20075;-70
2023/03/01 07:00:40;;;;;;;7.40;2.05;;;;;;;;;;5025996;28;20055;-69
2023/03/01 07:03:07;;;;;;;6.78;1.90;;;;;;;;;;5029165;28;20394;-69
2023/03/01 07:05:34;;;;;;;4.07;2.15;;;;;;;;;;5024385;28;20049;-73
2023/03/01 07:08:40;;;;;;;3.17;1.58;;;;;;;;;;5030975;28;20052;-69
2023/03/01 07:12:20;;;;;;;3.83;1.70;;;;;;;;;;5034401;28;20099;-70
2023/03/01 07:16:01;;;;;;;6.30;2.58;;;;;;;;;;5029088;28;20437;-70
2023/03/01 07:19:41;;;;;;;7.05;1.83;;;;;;;;;;5036413;28;20227;-70
2023/03/01 07:23:21;;;;;;;5.18;2.08;;;;;;;;;;5035972;28;20052;-68
2023/03/01 07:27:02;;;;;;;3.38;1.75;;;;;;;;;;5036364;28;20049;-68
2023/03/01 07:30:42;;;;;;;6.57;1.90;;;;;;;;;;5029348;28;20354;-70
2023/03/01 07:34:22;;;;;;;5.22;1.90;;;;;;;;;;5037763;28;20060;-68
2023/03/01 07:38:03;;;;;;;5.00;1.90;;;;;;;;;;5037147;28;20404;-70
2023/03/01 07:41:43;;;;;;;3.83;1.80;;;;;;;;;;5042341;28;20064;-69
2023/03/01 07:44:44;;;;;;;2.67;1.70;;;;;;;;;;5040653;28;20045;-68
2023/03/01 07:47:50;;;;;;;7.28;2.00;;;;;;;;;;5035018;28;20068;-68
2023/03/01 07:51:30;;;;;;;6.63;2.30;;;;;;;;;;5040190;28;20135;-66
2023/03/01 07:55:11;;;;;;;4.55;2.20;;;;;;;;;;5041428;28;20523;-67
2023/03/01 07:58:51;;;;;;;10.80;2.85;;;;;;;;;;5039480;28;20045;-67
2023/03/01 08:02:31;;;;;;;8.00;1.90;;;;;;;;;;5035635;28;20059;-68
2023/03/01 08:06:11;;;;;;;13.48;2.40;;;;;;;;;;5042244;28;20048;-68
2023/03/01 08:09:55;;;;;;;8.18;3.00;;;;;;;;;;5043246;28;20048;-65
2023/03/01 08:13:36;;;;;;;12.02;2.45;;;;;;;;;;5044192;28;20546;-68
2023/03/01 08:17:16;;;;;;;21.48;2.28;;;;;;;;;;5046689;28;20120;-69
2023/03/01 08:20:56;;;;;;;6.30;2.10;;;;;;;;;;5046355;28;20079;-66
2023/03/01 08:24:37;;;;;;;8.93;2.33;;;;;;;;;;5038349;28;20056;-67
2023/03/01 08:28:17;;;;;;;7.28;2.50;;;;;;;;;;5043554;28;20132;-66
2023/03/01 08:32:10;;;;;;;2.85;1.95;;;;;;;;;;5041140;28;20679;-67
2023/03/01 08:35:50;;;;;;;7.13;2.55;;;;;;;;;;5038602;28;20064;-66
2023/03/01 08:39:31;;;;;;;7.13;2.10;;;;;;;;;;5042818;28;20106;-66
2023/03/01 08:43:11;;;;;;;3.75;1.98;;;;;;;;;;5039723;28;20048;-66
2023/03/01 08:46:55;;;;;;;5.40;2.25;;;;;;;;;;5044502;28;20045;-66
2023/03/01 08:50:34;;;;;;;5.40;1.75;;;;;;;;;;5042783;28;20304;-64
2023/03/01 08:54:14;;;;;;;5.47;2.08;;;;;;;;;;5035258;28;20060;-67
2023/03/01 08:57:55;;;;;;;7.15;1.80;;;;;;;;;;5040077;28;20382;-66
2023/03/01 09:01:36;;;;;;;5.90;1.67;;;;;;;;;;5042277;28;20037;-66
2023/03/01 09:05:15;;;;;;;8.88;1.90;;;;;;;;;;5037786;28;20509;-68
2023/03/01 09:08:56;;;;;;;3.90;2.40;;;;;;;;;;5044042;28;20041;-67
2023/03/01 09:12:37;;;;;;;3.67;1.83;;;;;;;;;;5042180;28;20470;-69
2023/03/01 09:16:18;;;;;;;6.30;1.88;;;;;;;;;;5039040;28;20158;-71
2023/03/01 09:19:59;;;;;;;6.00;2.20;;;;;;;;;;5035071;28;20517;-68
2023/03/01 09:23:39;;;;;;;6.88;1.95;;;;;;;;;;5041167;28;20129;-68
2023/03/01 09:27:19;;;;;;;3.92;1.95;;;;;;;;;;5041626;28;20049;-76
2023/03/01 09:30:21;;;;;;;6.68;1.48;;;;;;;;;;5040220;28;20041;-69
2023/03/01 09:33:27;;;;;;;6.88;1.95;;;;;;;;;;5034492;28;20586;-67
2023/03/01 09:37:07;;;;;;;2.95;1.70;;;;;;;;;;5043523;28;20045;-68
2023/03/01 09:40:48;;;;;;;3.97;2.17;;;;;;;;;;5043246;28;20044;-69
2023/03/01 09:44:43;;;;;;;4.18;1.95;;;;;;;;;;5042041;28;20562;-73
2023/03/01 09:48:23;;;;;;;5.47;2.20;;;;;;;;;;5038051;28;20041;-72
2023/03/01 09:52:04;;;;;;;3.22;2.00;;;;;;;;;;5040606;28;20059;-71
2023/03/01 09:55:53;;;;;;;3.83;1.83;;;;;;;;;;5042292;28;20495;-69
2023/03/01 09:59:15;;;;;;;4.30;1.70;;;;;;;;;;5036338;28;20056;-68
2023/03/01 10:02:42;;;;;;;3.17;1.65;;;;;;;;;;5040994;28;20136;-71
2023/03/01 10:05:58;;;;;;;5.95;2.00;;;;;;;;;;5038234;28;20053;-73
2023/03/01 10:09:19;;;;;;;5.70;1.70;;;;;;;;;;5039557;28;20033;-70
2023/03/01 10:11:54;;;;;;;7.95;1.80;;;;;;;;;;5037577;28;20103;-69
2023/03/01 10:14:51;;;;;;;3.47;1.73;;;;;;;;;;5036723;28;20460;-70
2023/03/01 10:17:38;;;;;;;4.38;1.90;;;;;;;;;;5037361;28;20070;-74
2023/03/01 10:20:21;;;;;;;4.10;2.15;;;;;;;;;;5040349;28;20053;-71
2023/03/01 10:22:52;;;;;;;3.42;1.90;;;;;;;;;;5043965;28;20505;-71
2023/03/01 10:25:48;;;;;;;3.17;1.70;;;;;;;;;;5041428;28;20064;-69
2023/03/01 10:28:42;;;;;;;5.03;1.95;;;;;;;;;;5041936;28;20068;-71
2023/03/01 10:31:39;;;;;;;3.97;1.98;;;;;;;;;;5030716;28;20060;-71
2023/03/01 10:34:11;;;;;;;6.18;1.90;;;;;;;;;;5039430;28;20056;-71
2023/03/01 10:36:39;;;;;;;5.55;1.80;;;;;;;;;;5045760;28;20079;-74
2023/03/01 10:39:14;;;;;;;9.30;1.67;;;;;;;;;;5042955;28;20105;-71
2023/03/01 10:41:59;;;;;;;5.28;1.95;;;;;;;;;;5036480;28;20300;-70
2023/03/01 10:44:44;;;;;;;6.80;2.30;;;;;;;;;;5039729;28;20064;-69
2023/03/01 10:47:15;;;;;;;;;;;;;;;;;;5046641;28;20084;-69
2023/03/01 10:50:21;;;;;;;15.18;3.33;;;;;;;;;;5040641;28;19927;-70
2023/03/01 10:53:01;;;;;;;5.60;1.70;;;;;;;;;;5016146;28;20050;-70
2023/03/01 10:55:35;;;;;;;8.18;1.88;;;;;;;;;;5012282;28;20079;-70
2023/03/01 10:58:46;;;;;;;10.70;1.98;;;;;;;;;;5021789;28;20389;-70
2023/03/01 11:02:09;;;;;;;8.63;2.22;;;;;;;;;;5013391;28;20064;-71
2023/03/01 11:04:36;;;;;;;3.08;2.03;;;;;;;;;;5016485;28;20412;-69
2023/03/01 11:07:02;;;;;;;6.43;2.47;;;;;;;;;;5017006;28;20049;-71
2023/03/01 11:09:37;;;;;;;4.43;2.13;;;;;;;;;;5015058;28;20045;-69
2023/03/01 11:12:19;;;;;;;8.95;2.92;;;;;;;;;;5008425;28;20132;-71
2023/03/01 11:14:56;;;;;;;6.47;2.50;;;;;;;;;;5014533;28;20045;-70
2023/03/01 11:17:31;;;;;;;4.88;2.22;;;;;;;;;;5017822;28;20056;-70
2023/03/01 11:20:16;;;;;;;3.35;2.10;;;;;;;;;;5008601;28;20344;-72
2023/03/01 11:22:50;;;;;;;;;;;;;;;;;;4998440;28;20111;-70
2023/03/01 11:25:19;;;;;;;7.00;2.00;;;;;;;;;;5000781;28;19925;-69
2023/03/01 11:27:47;;;;;;;4.47;2.03;;;;;;;;;;5037097;28;20045;-69
2023/03/01 11:30:27;;;;;;;5.00;2.08;;;;;;;;;;5034669;28;20059;-72
2023/03/01 11:32:58;;;;;;;9.40;2.40;;;;;;;;;;5034009;28;20416;-71
2023/03/01 11:35:28;;;;;;;6.47;2.30;;;;;;;;;;5038398;28;20049;-67
2023/03/01 11:37:56;;;;;;;7.75;2.60;;;;;;;;;;5046713;28;20064;-68
2023/03/01 11:40:32;;;;;;;5.97;2.38;;;;;;;;;;5043669;28;20053;-71
2023/03/01 11:43:01;;;;;;;12.35;2.90;;;;;;;;;;5043574;28;20143;-72
2023/03/01 11:45:39;;;;;;;10.77;3.42;;;;;;;;;;5038967;28;20061;-73
2023/03/01 11:48:09;;;;;;;7.22;3.10;;;;;;;;;;5035490;28;20115;-69
2023/03/01 11:50:46;;;;;;;7.30;2.95;;;;;;;;;;5039705;28;20080;-70
2023/03/01 11:53:25;;;;;;;8.88;3.10;;;;;;;;;;5035319;28;20110;-70
2023/03/01 11:56:03;;;;;;;7.80;3.33;;;;;;;;;;5043734;28;20504;-71
2023/03/01 11:59:02;;;;;;;9.48;3.28;;;;;;;;;;5036817;28;20402;-71
2023/03/01 12:01:53;;;;;;;12.93;4.38;;;;;;;;;;5028159;28;20576;-71
2023/03/01 12:05:17;;;;;;;8.55;3.58;;;;;;;;;;5038580;28;20150;-71
2023/03/01 12:08:56;;;;;;;11.90;3.15;;;;;;;;;;5034766;28;20178;-72
2023/03/01 12:11:38;;;;;;;;;;;;;;;;;;5013386;28;20045;-72
2023/03/01 12:14:33;;;;;;;8.77;3.50;;;;;;;;;;5013520;28;19933;-71
2023/03/01 12:17:28;;;;;;;6.72;2.88;;;;;;;;;;5011329;28;20045;-74
2023/03/01 12:20:17;;;;;;;11.18;2.80;;;;;;;;;;5016990;28;20057;-73
2023/03/01 12:22:56;;;;;;;9.45;2.92;;;;;;;;;;5016107;28;20049;-74
2023/03/01 12:25:49;;;;;;;10.07;3.05;;;;;;;;;;5016667;28;20057;-73
2023/03/01 12:28:36;;;;;;;6.88;3.08;;;;;;;;;;5009344;28;20054;-72
2023/03/01 12:31:40;;;;;;;10.00;3.15;;;;;;;;;;5013490;28;20135;-72
2023/03/01 12:34:24;;;;;;;9.10;3.90;;;;;;;;;;5016413;28;20053;-72
2023/03/01 12:37:10;;;;;;;8.18;3.17;;;;;;;;;;5019190;28;20049;-73
2023/03/01 12:39:43;;;;;;;9.23;3.63;;;;;;;;;;5000780;28;20045;-75
2023/03/01 12:42:23;;;;;;;6.55;2.92;;;;;;;;;;5018133;28;20073;-74
2023/03/01 12:45:17;;;;;;;7.25;3.17;;;;;;;;;;5018918;28;20346;-74
2023/03/01 12:48:05;;;;;;;10.93;3.90;;;;;;;;;;5026308;28;20492;-71
2023/03/01 12:50:37;;;;;;;9.55;3.28;;;;;;;;;;5043852;28;20049;-72
2023/03/01 12:53:03;;;;;;;15.40;3.13;;;;;;;;;;5036682;28;20049;-71
2023/03/01 12:55:37;;;;;;;8.57;3.13;;;;;;;;;;5039636;28;20056;-74
2023/03/01 12:58:18;;;;;;;5.17;3.07;;;;;;;;;;5038945;28;20057;-71
2023/03/01 13:01:06;;;;;;;5.65;2.72;;;;;;;;;;5034833;28;20037;-71
2023/03/01 13:03:51;;;;;;;11.40;2.75;;;;;;;;;;5045232;28;20578;-73
2023/03/01 13:06:40;;;;;;;10.55;2.53;;;;;;;;;;5032942;28;20476;-72
2023/03/01 13:09:34;;;;;;;6.40;2.50;;;;;;;;;;5034259;28;20057;-72
2023/03/01 13:12:00;;;;;;;10.32;3.30;;;;;;;;;;5036205;28;20033;-73
2023/03/01 13:14:28;;;;;;;4.68;2.50;;;;;;;;;;5039489;28;20052;-72
2023/03/01 13:16:55;;;;;;;5.18;2.80;;;;;;;;;;5032073;28;20752;-72
2023/03/01 13:19:26;;;;;;;10.20;2.83;;;;;;;;;;5033865;28;20063;-70
2023/03/01 13:21:54;;;;;;;7.30;2.70;;;;;;;;;;5040810;28;20037;-71
2023/03/01 13:24:27;;;;;;;5.72;2.40;;;;;;;;;;5043549;28;20048;-72
2023/03/01 13:27:05;;;;;;;6.70;3.20;;;;;;;;;;5040209;28;20041;-72
2023/03/01 13:29:48;;;;;;;7.72;3.08;;;;;;;;;;5040052;28;20459;-71
2023/03/01 13:32:29;;;;;;;10.43;2.77;;;;;;;;;;5037515;28;20489;-71
2023/03/01 13:35:04;;;;;;;7.60;2.65;;;;;;;;;;5041710;28;20041;-71
2023/03/01 13:37:37;;;;;;;7.18;3.05;;;;;;;;;;5046382;28;20109;-73
2023/03/01 13:40:23;;;;;;;5.05;2.40;;;;;;;;;;5042565;28;20045;-71
2023/03/01 13:42:52;;;;;;;6.28;2.13;;;;;;;;;;5044448;28;20072;-73
2023/03/01 13:45:26;;;;;;;11.80;2.40;;;;;;;;;;5040338;28;20071;-73
2023/03/01 13:47:58;;;;;;;7.15;2.50;;;;;;;;;;5041495;28;20052;-73
2023/03/01 13:50:30;;;;;;;6.05;2.20;;;;;;;;;;5043567;28;20509;-73
2023/03/01 13:53:05;;;;;;;10.27;2.88;;;;;;;;;;5040142;28;20056;-71
2023/03/01 13:55:54;;;;;;;7.55;2.70;;;;;;;;;;5038540;28;20041;-73
2023/03/01 13:58:30;;;;;;;4.68;2.15;;;;;;;;;;5042361;28;20060;-72
2023/03/01 14:01:08;;;;;;;9.77;2.15;;;;;;;;;;5041280;28;20520;-71
2023/03/01 14:03:41;;;;;;;15.35;2.25;;;;;;;;;;5024845;28;20455;-71
2023/03/01 14:06:19;;;;;;;8.18;2.70;;;;;;;;;;5043207;28;20057;-72
2023/03/01 14:08:51;;;;;;;12.65;4.78;;;;;;;;;;5038861;28;20701;-74
2023/03/01 14:11:20;;;;;;;12.23;3.70;;;;;;;;;;5041914;28;20071;-71
2023/03/01 14:14:12;;;;;;;6.30;2.38;;;;;;;;;;5042380;28;20065;-72
2023/03/01 14:17:31;;;;;;;9.95;2.45;;;;;;;;;;5039624;28;20989;-73
2023/03/01 14:20:45;;;;;;;5.85;2.25;;;;;;;;;;5021898;28;20053;-73
2023/03/01 14:24:27;;;;;;;6.88;2.35;;;;;;;;;;5035305;28;20049;-71
2023/03/01 14:28:06;;;;;;;11.70;2.17;;;;;;;;;;5038223;28;20053;-70
2023/03/01 14:31:54;;;;;;;6.53;2.10;;;;;;;;;;5035229;28;20623;-70
2023/03/01 14:35:41;;;;;;;13.43;2.45;;;;;;;;;;5041533;28;20056;-67
2023/03/01 14:39:22;;;;;;;8.43;2.33;;;;;;;;;;5039867;28;20464;-67
2023/03/01 14:43:02;;;;;;;7.75;2.25;;;;;;;;;;5033271;28;20808;-68
2023/03/01 14:46:28;;;;;;;12.27;2.35;;;;;;;;;;5047727;28;20055;-68
2023/03/01 14:50:08;;;;;;;8.10;2.38;;;;;;;;;;5042221;28;20049;-68
2023/03/01 14:53:55;;;;;;;12.57;3.15;;;;;;;;;;5041775;28;20046;-67
2023/03/01 14:57:35;;;;;;;9.15;2.45;;;;;;;;;;5041223;28;20041;-66
2023/03/01 15:01:15;;;;;;;11.40;2.38;;;;;;;;;;5041338;28;20080;-67
2023/03/01 15:05:00;;;;;;;9.38;2.50;;;;;;;;;;5038074;28;20132;-72
2023/03/01 15:08:39;;;;;;;6.00;2.53;;;;;;;;;;5044538;28;20041;-73
2023/03/01 15:12:19;;;;;;;10.50;2.38;;;;;;;;;;5041228;28;20041;-70
2023/03/01 15:16:00;;;;;;;7.30;2.55;;;;;;;;;;5038059;28;20056;-68
2023/03/01 15:19:41;;;;;;;7.07;2.50;;;;;;;;;;5033771;28;20057;-68
2023/03/01 15:23:22;;;;;;;12.70;2.30;;;;;;;;;;5035464;28;20140;-70
2023/03/01 15:27:19;;;;;;;7.13;2.35;;;;;;;;;;5039371;28;20056;-68
2023/03/01 15:30:42;;;;;;;9.13;2.20;;;;;;;;;;5036901;28;20061;-68
2023/03/01 15:34:28;;;;;;;9.05;1.98;;;;;;;;;;5030899;28;20056;-66
2023/03/01 15:37:35;;;;;;;12.45;2.10;;;;;;;;;;5043969;28;20060;-68
2023/03/01 15:41:15;;;;;;;4.55;2.15;;;;;;;;;;5039609;28;20048;-67
2023/03/01 15:44:55;;;;;;;10.38;2.42;;;;;;;;;;5043183;28;20041;-70
2023/03/01 15:48:36;;;;;;;11.70;2.58;;;;;;;;;;5038537;28;20044;-71
2023/03/01 15:52:18;;;;;;;6.30;1.90;;;;;;;;;;5036824;28;20290;-70
2023/03/01 15:55:58;;;;;;;7.35;1.70;;;;;;;;;;5045904;28;20098;-69
2023/03/01 15:59:38;;;;;;;8.15;1.80;;;;;;;;;;5035769;28;20504;-67
2023/03/01 16:03:21;;;;;;;5.50;1.80;;;;;;;;;;5038099;28;20049;-68
2023/03/01 16:07:00;;;;;;;11.20;2.10;;;;;;;;;;5038295;28;20048;-68
2023/03/01 16:10:40;;;;;;;4.60;1.88;;;;;;;;;;5040937;28;20109;-67
2023/03/01 16:14:21;;;;;;;7.88;1.90;;;;;;;;;;5040188;28;20402;-69
2023/03/01 16:18:05;;;;;;;8.98;1.92;;;;;;;;;;5041779;28;20057;-69
2023/03/01 16:21:46;;;;;;;8.98;2.05;;;;;;;;;;5039993;28;20156;-68
2023/03/01 16:24:53;;;;;;;7.97;1.80;;;;;;;;;;5037440;28;20073;-67
2023/03/01 16:28:34;;;;;;;5.28;1.90;;;;;;;;;;5042244;28;20050;-69
2023/03/01 16:32:15;;;;;;;6.95;1.95;;;;;;;;;;5037135;28;20044;-67
2023/03/01 16:35:56;;;;;;;7.60;2.60;;;;;;;;;;5042610;28;20673;-69
2023/03/01 16:39:36;;;;;;;8.27;2.17;;;;;;;;;;5045808;28;20102;-70
2023/03/01 16:43:16;;;;;;;7.20;1.85;;;;;;;;;;5040998;28;21035;-69
2023/03/01 16:46:57;;;;;;;9.93;2.13;;;;;;;;;;5033006;28;20041;-72
2023/03/01 16:50:40;;;;;;;8.63;2.00;;;;;;;;;;5039115;28;20067;-71
2023/03/01 16:54:20;;;;;;;7.75;1.88;;;;;;;;;;5038358;28;20436;-69
2023/03/01 16:58:00;;;;;;;9.40;1.83;;;;;;;;;;5037940;28;20049;-69
2023/03/01 17:01:50;;;;;;;11.50;2.30;;;;;;;;;;5038235;28;20048;-70
2023/03/01 17:05:35;;;;;;;13.57;2.67;;;;;;;;;;5048581;28;20060;-69
2023/03/01 17:09:16;;;;;;;9.30;3.08;;;;;;;;;;5044092;28;20124;-72
2023/03/01 17:12:55;;;;;;;9.07;2.13;;;;;;;;;;5039201;28;20097;-70
2023/03/01 17:16:36;;;;;;;9.07;2.17;;;;;;;;;;5040034;28;20063;-69
2023/03/01 17:20:16;;;;;;;11.18;2.92;;;;;;;;;;5037810;28;20128;-66
2023/03/01 17:23:56;;;;;;;12.05;2.33;;;;;;;;;;5046746;28;20414;-68
2023/03/01 17:27:37;;;;;;;15.50;2.28;;;;;;;;;;5041155;28;20064;-69
2023/03/01 17:31:18;;;;;;;6.03;1.95;;;;;;;;;;5041469;28;20666;-70
2023/03/01 17:34:59;;;;;;;10.85;2.35;;;;;;;;;;5043595;28;20441;-69
2023/03/01 17:38:39;;;;;;;11.60;2.25;;;;;;;;;;5048501;28;20160;-69
2023/03/01 17:42:21;;;;;;;7.85;2.67;;;;;;;;;;5047586;28;20106;-68
2023/03/01 17:46:04;;;;;;;6.65;2.20;;;;;;;;;;5047041;28;20204;-69
2023/03/01 17:49:44;;;;;;;10.18;2.33;;;;;;;;;;5042281;28;20037;-69
2023/03/01 17:53:24;;;;;;;11.05;2.83;;;;;;;;;;5044761;28;20123;-69
2023/03/01 17:57:05;;;;;;;16.55;2.40;;;;;;;;;;5040233;28;20069;-68
2023/03/01 18:00:45;;;;;;;10.48;3.13;;;;;;;;;;5038715;28;20461;-69
2023/03/01 18:04:25;;;;;;;7.60;2.60;;;;;;;;;;5036373;28;20072;-72
2023/03/01 18:08:06;;;;;;;10.98;2.03;;;;;;;;;;5039011;28;20376;-68
2023/03/01 18:11:52;;;;;;;9.32;2.10;;;;;;;;;;5037428;28;20034;-70
2023/03/01 18:15:31;;;;;;;7.85;2.40;;;;;;;;;;5046757;28;20040;-68
2023/03/01 18:19:13;;;;;;;10.50;3.17;;;;;;;;;;5038767;28;20500;-72
2023/03/01 18:22:53;;;;;;;11.00;2.50;;;;;;;;;;5039289;28;20053;-67
2023/03/01 18:26:37;;;;;;;10.27;2.97;;;;;;;;;;5039294;28;20048;-71
2023/03/01 18:30:17;;;;;;;8.30;2.53;;;;;;;;;;5042802;28;20049;-69
2023/03/01 18:33:57;;;;;;;10.98;2.28;;;;;;;;;;5035852;28;20074;-69
2023/03/01 18:37:39;;;;;;;6.88;2.20;;;;;;;;;;5036551;28;20037;-69
2023/03/01 18:41:19;;;;;;;7.00;2.58;;;;;;;;;;5042341;28;20091;-69
2023/03/01 18:45:01;;;;;;;8.25;2.38;;;;;;;;;;5039681;28;20043;-74
2023/03/01 18:48:41;;;;;;;9.30;1.95;;;;;;;;;;5041143;28;20052;-67
2023/03/01 18:52:21;;;;;;;7.80;2.60;;;;;;;;;;5038618;28;20508;-71
2023/03/01 18:56:02;;;;;;;7.63;2.13;;;;;;;;;;5040941;28;20076;-68
2023/03/01 18:59:43;;;;;;;7.32;2.25;;;;;;;;;;5039244;28;20189;-69
2023/03/01 19:03:24;;;;;;;11.73;2.50;;;;;;;;;;5040770;28;20241;-68
2023/03/01 19:07:08;;;;;;;7.35;4.10;;;;;;;;;;5039599;28;20041;-68
2023/03/01 19:10:48;;;;;;;11.40;6.07;;;;;;;;;;5037777;28;20456;-67
2023/03/01 19:14:29;;;;;;;8.70;2.35;;;;;;;;;;5030723;28;20066;-67
2023/03/01 19:18:09;;;;;;;13.57;2.25;;;;;;;;;;5038254;28;20564;-68
2023/03/01 19:21:54;;;;;;;20.45;10.70;;;;;;;;;;5040801;28;20190;-67
2023/03/01 19:25:35;;;;;;;11.73;5.30;;;;;;;;;;5034363;28;20057;-65
2023/03/01 19:29:15;;;;;;;7.20;2.58;;;;;;;;;;5035950;28;20140;-67
2023/03/01 19:33:00;;;;;;;9.55;2.38;;;;;;;;;;5040675;28;20077;-69
2023/03/01 19:36:43;;;;;;;7.53;2.60;;;;;;;;;;5036883;28;20037;-67
2023/03/01 19:40:27;;;;;;;12.77;2.60;;;;;;;;;;5035406;28;20049;-68